Flight Track Log - Related Links

Times and Time Zones

All times are in EDT time to prevent confusion due to time zone crossing. See the ASQ4233 flight status page for this flight to view local times or setup timezone preferences in your user account.

Time Position Orientation Groundspeed Altitude Reporting Facility
EDT Latitude Longitude Course Direction KTS MPH feet Rate Location/Type
Tue 06:46:46 PM 29.9592 -95.3392 90° East 167 192 900  Level Houston Center
Tue 06:47:05 PM 29.9494 -95.3258 130° Southeast 180 207 1,600 1,976 Climbing Houston Center
Tue 06:48:08 PM 29.9117 -95.2708 128° Southeast 206 237 3,600 1,131 Climbing Houston Center
Tue 06:49:00 PM 29.9834 -94.9689 90° East  Level FlightAware Approximate
Tue 06:49:07 PM 29.8672 -95.2056 128° Southeast 249 287 3,900  Level Houston Center
Tue 06:50:00 PM 29.9833 -94.8475 90° East  Level FlightAware Approximate
Tue 06:50:03 PM 29.8458 -95.1358 109° East 272 313 5,300  Level Houston Center
Tue 06:51:00 PM 29.9834 -94.7260 90° East  Level FlightAware Approximate
Tue 06:51:05 PM 29.8228 -95.0472 107° East 280 322 7,800  Level Houston Center
Tue 06:52:12 PM 29.8389 -94.9489 79° East 283 326 10,600 1,902 Climbing Houston Center
Tue 06:53:08 PM 29.8597 -94.8594 75° East 334 384 11,700 984 Climbing Houston Center
Tue 06:54:20 PM 29.8883 -94.7469 74° East 347 399 12,700 1,254 Climbing Houston Center
Tue 06:55:22 PM 29.9225 -94.6083 74° East 371 427 14,500 1,548 Climbing Houston Center
Tue 06:56:24 PM 29.9514 -94.4892 74° East 383 441 15,900 1,306 Climbing Houston Center
Tue 06:57:26 PM 29.9819 -94.3611 75° East 391 450 17,200 1,210 Climbing Houston Center
Tue 06:58:28 PM 30.0056 -94.2372 78° East 397 457 18,400 1,171 Climbing Houston Center
Tue 06:59:29 PM 30.0206 -94.1072 82° East 409 471 19,600 1,122 Climbing Houston Center
Tue 07:00:31 PM 30.0369 -93.9764 82° East 413 475 20,700 1,065 Climbing Houston Center
Tue 07:01:33 PM 30.0528 -93.8422 82° East 422 486 21,800 968 Climbing Houston Center
Tue 07:02:35 PM 30.0697 -93.7058 82° East 432 497 22,700 1,065 Climbing Houston Center
Tue 07:03:37 PM 30.0897 -93.5414 82° East 437 503 24,000 1,161 Climbing Houston Center
Tue 07:04:39 PM 30.1056 -93.4039 82° East 439 505 25,100 1,065 Climbing Houston Center
Tue 07:05:41 PM 30.1219 -93.2658 82° East 440 506 26,200 1,073 Climbing Houston Center
Tue 07:06:42 PM 30.1681 -93.1408 67° East 435 501 27,300 1,171 Climbing Houston Center
Tue 07:07:44 PM 30.2425 -93.0019 58° Northeast 426 490 28,600 1,161 Climbing Houston Center
Tue 07:08:46 PM 30.3033 -92.8875 58° Northeast 422 486 29,700 1,016 Climbing Houston Center
Tue 07:09:48 PM 30.3653 -92.7714 58° Northeast 425 489 30,700 629 Climbing Houston Center
Tue 07:10:50 PM 30.4292 -92.6522 58° Northeast 435 501 31,000 146 Climbing Houston Center
Tue 07:11:51 PM 30.5033 -92.5119 58° Northeast 457 526 31,000  Level Houston Center
Tue 07:12:53 PM 30.5728 -92.3825 58° Northeast 471 542 31,000  Level Houston Center
Tue 07:13:55 PM 30.6408 -92.2522 59° Northeast 475 547 31,000  Level Houston Center
Tue 07:14:57 PM 30.7069 -92.1256 59° Northeast 465 535 31,000  Level Houston Center
Tue 07:15:58 PM 30.7722 -92.0014 59° Northeast 457 526 31,000  Level Houston Center
Tue 07:17:00 PM 30.8508 -91.8542 58° Northeast 451 519 31,000  Level Houston Center
Tue 07:18:02 PM 30.9158 -91.7294 59° Northeast 452 520 31,000  Level Houston Center
Tue 07:19:04 PM 30.9800 -91.6044 59° Northeast 452 520 31,000  Level Houston Center
Tue 07:20:05 PM 31.0447 -91.4803 59° Northeast 451 519 31,000  Level Houston Center
Tue 07:21:07 PM 31.1122 -91.3469 59° Northeast 451 519 31,000  Level Houston Center
Tue 07:22:09 PM 31.1789 -91.2200 58° Northeast 457 526 31,000  Level Houston Center
Tue 07:23:11 PM 31.2442 -91.0914 59° Northeast 459 528 31,000  Level Houston Center
Tue 07:24:12 PM 31.3092 -90.9628 59° Northeast 459 528 31,000  Level Houston Center
Tue 07:25:14 PM 31.3753 -90.8339 59° Northeast 460 529 31,000  Level Houston Center
Tue 07:26:16 PM 31.4417 -90.7036 59° Northeast 463 533 31,000  Level Houston Center
Tue 07:27:17 PM 31.5186 -90.5494 60° Northeast 459 528 31,000  Level Houston Center
Tue 07:28:19 PM 31.5844 -90.4194 59° Northeast 460 529 31,000  Level Houston Center
Tue 07:29:21 PM 31.6494 -90.2914 59° Northeast 458 527 31,000  Level Houston Center
Tue 07:30:23 PM 31.7142 -90.1625 59° Northeast 458 527 31,000  Level Houston Center
Tue 07:30:56 PM 31.7489 -90.0886 61° Northeast 455 524 31,000  Level Memphis Center
Tue 07:31:56 PM 31.8133 -89.9614 59° Northeast 455 524 31,000 -150 Level Memphis Center
Tue 07:32:56 PM 31.8775 -89.8314 60° Northeast 455 524 30,700 -600 Descending Memphis Center
Tue 07:33:56 PM 31.9417 -89.7036 59° Northeast 450 518 29,800 -850 Descending Memphis Center
Tue 07:34:56 PM 32.0056 -89.5733 60° Northeast 450 518 29,000 -400 Descending Memphis Center
Tue 07:35:56 PM 32.0672 -89.4456 60° Northeast 445 512 29,000  Level Memphis Center
Tue 07:36:56 PM 32.1289 -89.3197 60° Northeast 445 512 29,000 -450 Level Memphis Center
Tue 07:37:56 PM 32.1944 -89.1889 59° Northeast 450 518 28,100 -1,150 Descending Memphis Center
Tue 07:38:56 PM 32.2581 -89.0578 60° Northeast 450 518 26,700 -1,600 Descending Memphis Center
Tue 07:39:56 PM 32.3275 -88.9167 60° Northeast 450 518 24,900 -1,600 Descending Memphis Center
Tue 07:40:56 PM 32.3886 -88.7928 60° Northeast 444 511 23,500 -950 Descending Memphis Center
Tue 07:41:56 PM 32.4664 -88.6781 51° Northeast 444 511 23,000 -250 Descending Memphis Center
Tue 07:42:56 PM 32.5464 -88.5681 49° Northeast 432 497 23,000  Level Memphis Center
Tue 07:43:56 PM 32.6197 -88.4606 51° Northeast 427 491 23,000  Level Memphis Center
Tue 07:44:56 PM 32.6953 -88.3503 51° Northeast 427 491 23,000  Level Memphis Center
Tue 07:46:33 PM 32.8128 -88.1736 52° Northeast 438 504 23,000  Level Atlanta Center
Tue 07:47:33 PM 32.8875 -88.0608 52° Northeast 438 504 23,000 -50 Level Atlanta Center
Tue 07:48:33 PM 32.9750 -87.9386 50° Northeast 433 498 22,900 -1,150 Descending Atlanta Center
Tue 07:49:33 PM 33.0386 -87.8400 52° Northeast 428 493 20,700 -2,300 Descending Atlanta Center
Tue 07:50:33 PM 33.1106 -87.7339 51° Northeast 428 493 18,300 -2,300 Descending Atlanta Center
Tue 07:51:33 PM 33.1847 -87.6253 51° Northeast 422 486 16,100 -2,375 Descending Atlanta Center
Tue 07:52:09 PM 33.2303 -87.5628 49° Northeast 383 441 14,500 -2,200 Descending Atlanta Center
Tue 07:52:33 PM 33.2503 -87.5289 55° Northeast 402 463 13,900 -1,818 Descending Atlanta Center
Tue 07:53:15 PM 33.3022 -87.4539 50° Northeast 375 432 12,500 -1,700 Descending Atlanta Center
Tue 07:53:33 PM 33.3136 -87.4269 63° Northeast 389 448 12,200 -1,279 Descending Atlanta Center
Tue 07:54:16 PM 33.3408 -87.3483 67° East 340 391 11,200 -1,300 Descending Atlanta Center
Tue 07:54:33 PM 33.3497 -87.3264 64° Northeast 355 409 10,900 -1,636 Descending Atlanta Center
Tue 07:55:11 PM 33.3722 -87.2625 67° East 292 336 9,700 -1,800 Descending Atlanta Center
Tue 07:55:33 PM 33.3792 -87.2331 74° East 322 371 9,100 -2,000 Descending Atlanta Center
Tue 07:56:11 PM 33.4017 -87.1742 65° Northeast 284 327 7,700 -2,100 Descending Atlanta Center
Tue 07:56:33 PM 33.4108 -87.1444 70° East 296 341 7,000 -2,400 Descending Atlanta Center
Tue 07:57:06 PM 33.4267 -87.0953 69° East 269 310 5,500 -1,800 Descending Atlanta Center
Tue 07:57:33 PM 33.4378 -87.0633 67° East 276 318 5,200 -1,100 Descending Atlanta Center
Tue 07:58:06 PM 33.4536 -87.0167 68° East 260 299 4,400 -1,100 Descending Atlanta Center
Tue 07:58:33 PM 33.4628 -86.9819 72° East 265 305 4,100 -885 Descending Atlanta Center
Tue 07:59:07 PM 33.4742 -86.9425 71° East 240 276 3,500 -900 Descending Atlanta Center
Tue 07:59:33 PM 33.4872 -86.9106 64° Northeast 246 283 3,200 -692 Descending Atlanta Center

Login

Don't have an account? Register now (free) for customized features, flight alerts, and more!